Time;durP1;ratioP1;P1;durP2;ratioP2;P2;SDS_P1;SDS_P2;PMS_P1;PMS_P2;Temp;Humidity;BMP_temperature;BMP_pressure;BME280_temperature;BME280_humidity;BME280_pressure;Samples;Min_cycle;Max_cycle;Signal;HPM_P1;HPM_P2
2021/08/22 00:01:06;;;;;;;4.85;4.35;;;;;;;25.34;97.57;101231.53;4861303;29;20022;-66
2021/08/22 00:03:51;;;;;;;4.15;3.75;;;;;;;25.34;97.79;101231.53;4862337;29;20116;-66
2021/08/22 00:06:37;;;;;;;4.72;4.20;;;;;;;25.63;95.31;101225.84;4861706;29;20033;-66
2021/08/22 00:09:23;;;;;;;5.82;4.25;;;;;;;25.26;96.95;101218.66;4861701;29;20116;-66
2021/08/22 00:12:09;;;;;;;8.82;4.50;;;;;;;25.24;97.07;101217.88;4861120;29;20029;-66
2021/08/22 00:14:55;;;;;;;7.05;4.72;;;;;;;25.45;95.88;101227.16;4861265;29;20039;-66
2021/08/22 00:17:41;;;;;;;5.18;4.13;;;;;;;25.28;97.93;101216.72;4861253;29;20102;-66
2021/08/22 00:20:26;;;;;;;5.22;4.05;;;;;;;25.29;96.46;101215.78;4861350;29;20419;-66
2021/08/22 00:23:12;;;;;;;6.13;4.28;;;;;;;25.57;95.58;101220.06;4861083;29;20044;-66
2021/08/22 00:25:59;;;;;;;5.90;4.70;;;;;;;24.98;100.00;101223.34;4862417;29;20058;-66
2021/08/22 00:28:44;;;;;;;7.28;5.07;;;;;;;24.84;100.00;101220.75;4865212;29;20033;-66
2021/08/22 00:31:30;;;;;;;6.88;4.43;;;;;;;24.70;100.00;101228.88;4864932;29;20034;-66
2021/08/22 00:34:16;;;;;;;4.55;4.07;;;;;;;24.65;100.00;101222.97;4864585;29;20369;-66
2021/08/22 00:37:02;;;;;;;5.30;4.60;;;;;;;24.68;100.00;101230.81;4864343;29;20033;-66
2021/08/22 00:39:48;;;;;;;6.45;4.90;;;;;;;24.36;100.00;101240.09;4863882;29;20033;-66
2021/08/22 00:42:36;;;;;;;5.47;4.55;;;;;;;23.91;100.00;101238.59;4864244;29;20106;-66
2021/08/22 00:45:21;;;;;;;5.57;4.60;;;;;;;24.06;100.00;101242.97;4865003;29;20044;-66
2021/08/22 00:48:07;;;;;;;6.63;4.60;;;;;;;23.92;100.00;101236.78;4864196;29;20071;-66
2021/08/22 00:50:54;;;;;;;5.78;4.97;;;;;;;24.12;100.00;101234.53;4864238;29;20129;-66
2021/08/22 00:53:40;;;;;;;6.50;4.95;;;;;;;24.27;100.00;101240.72;4870832;29;20055;-66
2021/08/22 00:56:25;;;;;;;5.22;4.45;;;;;;;24.36;100.00;101240.09;4883163;29;20029;-66
2021/08/22 00:59:13;;;;;;;5.43;4.82;;;;;;;24.48;100.00;101241.97;4882856;29;20044;-66
2021/08/22 01:02:01;;;;;;;7.30;5.35;;;;;;;24.44;100.00;101244.00;4870708;29;20029;-66
2021/08/22 01:04:56;;;;;;;7.32;4.78;;;;;;;24.24;100.00;101252.50;4870450;29;20036;-66
2021/08/22 01:07:50;;;;;;;6.70;5.45;;;;;;;24.02;100.00;101254.81;4882655;29;20060;-67
2021/08/22 01:10:38;;;;;;;9.18;5.78;;;;;;;24.17;100.00;101252.97;4882693;29;20117;-66
2021/08/22 01:13:28;;;;;;;8.05;6.40;;;;;;;24.04;100.00;101252.06;4883357;29;20025;-66
2021/08/22 01:16:14;;;;;;;6.55;5.55;;;;;;;24.15;100.00;101246.88;4882623;29;20029;-67
2021/08/22 01:19:07;;;;;;;6.47;5.80;;;;;;;24.24;100.00;101248.94;4882598;29;20024;-67
2021/08/22 01:21:53;;;;;;;9.15;6.28;;;;;;;24.22;100.00;101242.84;4882386;29;20021;-66
2021/08/22 01:24:41;;;;;;;9.55;6.15;;;;;;;24.02;100.00;101254.81;4882160;29;20028;-67
2021/08/22 01:27:28;;;;;;;7.43;5.68;;;;;;;24.25;100.00;101246.16;4882364;29;20029;-66
2021/08/22 01:30:17;;;;;;;7.78;5.68;;;;;;;24.39;100.00;101247.94;4869857;29;20488;-66
2021/08/22 01:33:08;;;;;;;7.88;5.82;;;;;;;24.41;100.00;101246.00;4882483;29;20044;-66
2021/08/22 01:35:54;;;;;;;7.47;5.30;;;;;;;23.77;100.00;101238.59;4881852;29;20033;-66
2021/08/22 01:38:41;;;;;;;9.10;5.50;;;;;;;23.88;100.00;101245.94;4881172;29;20549;-66
2021/08/22 01:41:28;;;;;;;7.03;5.53;;;;;;;24.07;100.00;101246.50;4883395;29;20369;-66
2021/08/22 01:44:15;;;;;;;6.35;5.30;;;;;;;24.11;100.00;101240.84;4881818;29;20035;-66
2021/08/22 01:47:05;;;;;;;6.05;4.97;;;;;;;24.13;100.00;101238.06;4882013;29;20457;-66
2021/08/22 01:49:52;;;;;;;7.05;5.22;;;;;;;24.03;100.00;101245.81;4881875;29;20029;-66
2021/08/22 01:52:38;;;;;;;5.45;4.80;;;;;;;24.11;100.00;101238.16;4882979;29;20450;-66
2021/08/22 01:55:24;;;;;;;8.43;5.55;;;;;;;24.19;100.00;101245.72;4881752;29;20462;-66
2021/08/22 01:58:10;;;;;;;5.85;5.18;;;;;;;24.29;100.00;101252.16;4883571;29;20036;-66
2021/08/22 02:00:56;;;;;;;7.47;5.18;;;;;;;24.21;100.00;101258.03;4881483;29;20085;-67
2021/08/22 02:03:50;;;;;;;5.85;4.78;;;;;;;23.89;100.00;101251.19;4882353;29;20319;-66
2021/08/22 02:06:47;;;;;;;6.75;5.95;;;;;;;24.17;100.00;101251.16;4881294;29;20029;-66
2021/08/22 02:10:06;;;;;;;9.95;5.45;;;;;;;23.90;100.00;101255.56;4881289;29;20066;-65
2021/08/22 02:12:57;;;;;;;12.30;5.82;;;;;;;23.56;100.00;101260.47;4868624;29;20442;-66
2021/08/22 02:15:44;;;;;;;6.25;5.57;;;;;;;23.66;100.00;101259.81;4882670;29;20033;-66
2021/08/22 02:18:31;;;;;;;6.30;5.43;;;;;;;23.48;100.00;101255.63;4869210;29;20391;-66
2021/08/22 02:21:17;;;;;;;6.65;4.82;;;;;;;23.40;100.00;101257.91;4881318;29;20025;-66
2021/08/22 02:24:04;;;;;;;5.57;5.00;;;;;;;23.38;100.00;101258.97;4881043;29;20032;-66
2021/08/22 02:26:50;;;;;;;6.03;5.43;;;;;;;23.44;100.00;101252.25;4882219;29;20531;-66
2021/08/22 02:29:49;;;;;;;10.98;5.70;;;;;;;23.30;100.00;101254.94;4880682;29;20108;-66
2021/08/22 02:32:36;;;;;;;9.30;5.50;;;;;;;23.33;100.00;101254.75;4880929;29;20048;-65
2021/08/22 02:35:22;;;;;;;6.82;5.18;;;;;;;23.68;100.00;101251.69;4868654;29;20084;-66
2021/08/22 02:38:07;;;;;;;6.20;5.22;;;;;;;23.42;100.00;101259.53;4880883;29;20032;-66
2021/08/22 02:40:53;;;;;;;6.68;5.10;;;;;;;23.44;100.00;101251.41;4882098;29;20025;-66
2021/08/22 02:43:40;;;;;;;6.90;5.10;;;;;;;23.51;100.00;101249.22;4882586;29;20045;-66
2021/08/22 02:46:25;;;;;;;6.85;5.47;;;;;;;23.57;100.00;101252.34;4880909;29;20057;-66
2021/08/22 02:49:11;;;;;;;15.27;5.47;;;;;;;23.23;100.00;101247.38;4880671;29;20025;-66
2021/08/22 02:51:57;;;;;;;6.82;5.20;;;;;;;23.42;100.00;101247.94;4882643;29;20043;-66
2021/08/22 02:54:43;;;;;;;8.75;5.50;;;;;;;23.27;100.00;101244.41;4881481;29;20045;-66
2021/08/22 02:57:28;;;;;;;7.30;5.20;;;;;;;23.46;100.00;101248.66;4880674;29;20393;-66
2021/08/22 03:00:14;;;;;;;6.05;5.05;;;;;;;23.61;100.00;101255.69;4880912;29;20029;-66
2021/08/22 03:03:00;;;;;;;7.93;5.03;;;;;;;23.51;100.00;101252.75;4881569;29;20029;-66
2021/08/22 03:05:46;;;;;;;7.03;5.50;;;;;;;23.62;100.00;101252.09;4880309;29;20040;-66
2021/08/22 03:08:32;;;;;;;5.97;5.13;;;;;;;23.12;100.00;101257.84;4880623;29;20033;-65
2021/08/22 03:11:19;;;;;;;6.13;5.30;;;;;;;22.98;100.00;101255.13;4880820;29;20039;-66
2021/08/22 03:14:05;;;;;;;7.15;5.30;;;;;;;23.42;100.00;101255.13;4880785;29;20039;-66
2021/08/22 03:16:51;;;;;;;6.60;5.50;;;;;;;23.35;100.00;101246.63;4880430;29;20081;-66
2021/08/22 03:19:37;;;;;;;5.85;4.85;;;;;;;23.01;100.00;101249.59;4880703;29;20064;-66
2021/08/22 03:22:23;;;;;;;6.03;4.72;;;;;;;22.75;100.00;101248.47;4880317;29;20025;-66
2021/08/22 03:25:11;;;;;;;8.80;5.30;;;;;;;22.98;100.00;101255.13;4880289;29;20473;-66
2021/08/22 03:27:56;;;;;;;8.05;4.95;;;;;;;23.07;100.00;101260.78;4880454;29;20443;-66
2021/08/22 03:30:42;;;;;;;7.05;4.85;;;;;;;23.19;100.00;101265.38;4881725;29;20082;-66
2021/08/22 03:33:28;;;;;;;7.38;5.40;;;;;;;22.89;100.00;101269.03;4880453;29;20462;-66
2021/08/22 03:36:14;;;;;;;6.45;5.38;;;;;;;23.28;100.00;101280.03;4881227;29;20143;-66
2021/08/22 03:38:59;;;;;;;6.38;5.28;;;;;;;23.33;100.00;101280.63;4880562;29;20461;-66
2021/08/22 03:41:45;;;;;;;9.13;5.50;;;;;;;23.06;100.00;101277.78;4880607;29;20112;-65
2021/08/22 03:44:31;;;;;;;7.47;5.38;;;;;;;22.72;100.00;101277.19;4880325;29;20029;-65
2021/08/22 03:47:17;;;;;;;5.45;4.88;;;;;;;23.01;100.00;101269.19;4879767;29;20025;-65
2021/08/22 03:50:03;;;;;;;7.90;5.68;;;;;;;23.27;100.00;101276.50;4867506;29;20036;-66
2021/08/22 03:52:51;;;;;;;6.53;5.18;;;;;;;23.03;100.00;101275.28;4880269;29;20470;-66
2021/08/22 03:55:37;;;;;;;7.80;5.63;;;;;;;22.87;100.00;101276.31;4880316;29;20076;-66
2021/08/22 03:58:23;;;;;;;6.28;5.45;;;;;;;22.86;100.00;101275.44;4880051;29;20025;-66
2021/08/22 04:01:09;;;;;;;7.18;5.80;;;;;;;22.67;100.00;101293.47;4883294;29;20021;-66
2021/08/22 04:03:56;;;;;;;7.75;5.53;;;;;;;22.87;100.00;101293.16;4885183;29;20442;-66
2021/08/22 04:06:48;;;;;;;7.07;5.45;;;;;;;22.68;100.00;101289.00;4884913;29;20128;-67
2021/08/22 04:09:34;;;;;;;10.13;5.75;;;;;;;22.78;100.00;101293.72;4885181;29;20057;-66
2021/08/22 04:12:20;;;;;;;8.80;5.63;;;;;;;22.82;100.00;101291.72;4883352;29;20051;-66
2021/08/22 04:15:06;;;;;;;7.03;5.20;;;;;;;23.05;100.00;101296.56;4883502;29;20065;-66
2021/08/22 04:17:52;;;;;;;8.13;5.60;;;;;;;22.38;100.00;101302.28;4871498;29;20492;-66
2021/08/22 04:20:39;;;;;;;7.75;5.75;;;;;;;22.74;100.00;101302.00;4883507;29;20036;-66
2021/08/22 04:23:25;;;;;;;7.15;5.93;;;;;;;22.81;100.00;101303.38;4883903;29;20044;-66
2021/08/22 04:26:11;;;;;;;8.13;6.30;;;;;;;22.45;100.00;101316.13;4883329;29;20113;-67
2021/08/22 04:28:56;;;;;;;7.80;5.30;;;;;;;22.76;100.00;101306.31;4883090;29;20056;-67
2021/08/22 04:31:42;;;;;;;8.30;5.97;;;;;;;22.85;100.00;101313.78;4885008;29;20033;-67
2021/08/22 04:34:28;;;;;;;7.82;6.07;;;;;;;23.02;100.00;101312.78;4884646;29;20029;-67
2021/08/22 04:37:14;;;;;;;12.60;5.93;;;;;;;23.14;100.00;101312.94;4884490;29;20030;-67
2021/08/22 04:39:59;;;;;;;11.88;5.78;;;;;;;23.29;100.00;101309.38;4885067;29;20025;-67
2021/08/22 04:42:45;;;;;;;10.23;5.85;;;;;;;23.12;100.00;101313.97;4869722;29;20040;-67
2021/08/22 04:45:32;;;;;;;9.73;5.97;;;;;;;23.30;100.00;101320.91;4884988;29;20029;-66
2021/08/22 04:48:18;;;;;;;12.98;6.10;;;;;;;22.89;100.00;101319.81;4882641;29;20033;-66
2021/08/22 04:51:03;;;;;;;9.30;5.57;;;;;;;23.24;100.00;101318.63;4870883;29;20160;-66
2021/08/22 04:53:49;;;;;;;11.55;5.55;;;;;;;23.36;100.00;101316.06;4882481;29;20085;-67
2021/08/22 04:56:39;;;;;;;8.77;5.40;;;;;;;23.58;100.00;101314.75;4883790;29;20133;-66
2021/08/22 04:59:25;;;;;;;7.82;5.40;;;;;;;23.35;100.00;101321.53;4882665;29;20043;-67
2021/08/22 05:02:10;;;;;;;8.30;5.53;;;;;;;23.19;100.00;101320.69;4882728;29;20025;-66
2021/08/22 05:04:56;;;;;;;10.98;6.38;;;;;;;23.29;100.00;101322.75;4883247;29;20033;-66
2021/08/22 05:07:42;;;;;;;7.13;5.88;;;;;;;23.29;100.00;101320.06;4884239;29;20025;-67
2021/08/22 05:10:28;;;;;;;9.05;6.22;;;;;;;23.79;100.00;101326.81;4883983;29;20040;-67
2021/08/22 05:13:13;;;;;;;9.15;6.25;;;;;;;23.73;100.00;101330.72;4881361;29;20060;-66
2021/08/22 05:15:59;;;;;;;8.73;5.13;;;;;;;23.96;100.00;101329.31;4882428;29;20052;-66
2021/08/22 05:18:46;;;;;;;7.53;5.57;;;;;;;24.01;100.00;101344.13;4882962;29;20052;-66
2021/08/22 05:21:32;;;;;;;8.60;5.35;;;;;;;23.74;100.00;101340.47;4869931;29;20032;-67
2021/08/22 05:24:18;;;;;;;8.68;6.10;;;;;;;24.08;100.00;101342.81;4883581;29;20116;-67
2021/08/22 05:27:04;;;;;;;7.55;5.72;;;;;;;24.08;100.00;101340.13;4882665;29;20123;-67
2021/08/22 05:29:49;;;;;;;8.90;5.47;;;;;;;24.20;100.00;101346.50;4882588;29;20104;-66
2021/08/22 05:32:35;;;;;;;8.27;5.43;;;;;;;24.38;100.00;101348.00;4870028;29;20025;-66
2021/08/22 05:35:21;;;;;;;9.00;5.15;;;;;;;23.95;100.00;101351.69;4881831;29;20025;-66
2021/08/22 05:38:08;;;;;;;6.65;5.32;;;;;;;24.25;100.00;101355.09;4883871;29;20061;-66
2021/08/22 05:40:53;;;;;;;6.05;4.95;;;;;;;24.47;100.00;101344.75;4883758;29;20029;-66
2021/08/22 05:43:40;;;;;;;8.02;5.30;;;;;;;24.43;100.00;101349.41;4870306;29;20363;-66
2021/08/22 05:46:26;;;;;;;8.05;6.80;;;;;;;24.72;100.00;101360.97;4882726;29;20089;-66
2021/08/22 05:49:12;;;;;;;6.88;5.40;;;;;;;24.54;100.00;101362.13;4882563;29;20056;-66
2021/08/22 05:51:57;;;;;;;8.23;5.13;;;;;;;24.38;100.00;101364.94;4883889;29;20033;-66
2021/08/22 05:54:43;;;;;;;8.32;5.13;;;;;;;24.76;100.00;101368.72;4882008;29;20466;-67
2021/08/22 05:57:29;;;;;;;8.43;5.13;;;;;;;24.78;100.00;101372.16;4881671;29;20056;-66
2021/08/22 06:00:15;;;;;;;6.63;4.90;;;;;;;25.39;97.82;101364.41;4881497;29;20033;-67
2021/08/22 06:03:01;;;;;;;8.63;5.05;;;;;;;24.67;100.00;101366.63;4881821;29;20084;-66
2021/08/22 06:05:47;;;;;;;6.35;4.43;;;;;;;25.03;100.00;101360.66;4882850;29;20037;-66
2021/08/22 06:08:33;;;;;;;8.07;5.13;;;;;;;25.98;95.68;101362.97;4881578;29;20048;-67
2021/08/22 06:11:19;;;;;;;8.90;5.13;;;;;;;26.12;94.91;101366.38;4881561;29;20025;-66
2021/08/22 06:14:05;;;;;;;7.15;5.03;;;;;;;25.66;95.47;101364.34;4881621;29;20033;-66
2021/08/22 06:16:51;;;;;;;8.57;4.68;;;;;;;25.62;97.11;101370.88;4880986;29;20035;-66
2021/08/22 06:19:37;;;;;;;6.43;4.70;;;;;;;25.90;95.75;101362.63;4881452;29;20036;-67
2021/08/22 06:22:23;;;;;;;5.85;4.70;;;;;;;25.70;96.71;101363.16;4881258;29;20097;-67
2021/08/22 06:25:09;;;;;;;5.80;4.30;;;;;;;25.86;93.23;101369.16;4880778;29;20112;-66
2021/08/22 06:27:54;;;;;;;6.82;4.35;;;;;;;26.78;88.77;101372.28;4868337;29;20033;-66
2021/08/22 06:30:42;;;;;;;7.15;4.65;;;;;;;26.52;89.59;101370.59;4868325;29;20041;-66
2021/08/22 06:33:27;;;;;;;10.15;4.63;;;;;;;26.51;88.48;101368.88;4881599;29;20045;-66
2021/08/22 06:36:13;;;;;;;7.07;5.00;;;;;;;26.09;90.04;101365.75;4881096;29;20077;-66
2021/08/22 06:38:59;;;;;;;7.30;4.20;;;;;;;26.52;83.77;101370.59;4881020;29;20033;-67
2021/08/22 06:41:45;;;;;;;8.48;4.40;;;;;;;26.64;85.11;101368.91;4882553;29;20033;-66
2021/08/22 06:44:31;;;;;;;35.17;4.70;;;;;;;26.31;88.06;101372.16;4882541;29;20028;-66
2021/08/22 06:47:17;;;;;;;9.00;4.20;;;;;;;27.02;81.98;101375.81;4880516;29;20043;-66
2021/08/22 06:50:04;;;;;;;7.32;4.32;;;;;;;26.73;81.59;101378.97;4880750;29;20029;-67
2021/08/22 06:52:51;;;;;;;5.43;4.25;;;;;;;27.22;79.30;101372.53;4880612;29;20065;-67
2021/08/22 06:55:37;;;;;;;4.85;3.90;;;;;;;27.43;76.41;101367.31;4880604;29;20080;-66
2021/08/22 06:58:23;;;;;;;9.55;4.20;;;;;;;27.42;78.57;101370.97;4881858;29;20047;-66
2021/08/22 07:01:09;;;;;;;6.20;4.10;;;;;;;27.22;78.33;101374.34;4868448;29;20045;-66
2021/08/22 07:03:55;;;;;;;5.32;4.60;;;;;;;27.51;76.62;101361.34;4880709;29;20207;-66
2021/08/22 07:06:41;;;;;;;5.70;4.30;;;;;;;27.78;75.93;101367.25;4882033;29;20096;-67
2021/08/22 07:09:26;;;;;;;7.53;4.15;;;;;;;28.09;73.68;101378.22;4880287;29;20049;-66
2021/08/22 07:12:14;;;;;;;5.15;4.22;;;;;;;27.90;72.43;101380.66;4880415;29;20370;-66
2021/08/22 07:15:00;;;;;;;6.85;4.18;;;;;;;28.09;72.33;101383.63;4880411;29;20032;-67
2021/08/22 07:17:46;;;;;;;6.18;4.32;;;;;;;28.15;71.23;101379.56;4880389;29;20033;-66
2021/08/22 07:20:32;;;;;;;4.55;4.07;;;;;;;28.11;71.57;101380.78;4882209;29;20374;-65
2021/08/22 07:23:17;;;;;;;7.38;4.10;;;;;;;28.28;69.08;101386.53;4880088;29;20039;-66
2021/08/22 07:26:03;;;;;;;5.10;4.50;;;;;;;28.42;69.80;101390.84;4882061;29;20472;-65
2021/08/22 07:28:49;;;;;;;11.57;4.90;;;;;;;28.60;70.02;101384.81;4867031;29;20374;-66
2021/08/22 07:31:35;;;;;;;6.47;4.03;;;;;;;28.61;67.41;101393.78;4880661;29;20025;-67
2021/08/22 07:34:20;;;;;;;7.60;4.43;;;;;;;28.66;71.94;101383.47;4879284;29;20033;-66
2021/08/22 07:37:07;;;;;;;8.98;4.38;;;;;;;29.02;74.88;101380.44;4879952;29;20451;-66
2021/08/22 07:39:52;;;;;;;5.03;3.92;;;;;;;29.32;68.55;101389.53;4880220;29;20033;-66
2021/08/22 07:42:38;;;;;;;7.28;4.80;;;;;;;29.36;67.28;101396.38;4867830;29;20116;-66
2021/08/22 07:45:25;;;;;;;5.68;4.55;;;;;;;29.28;69.26;101389.91;4867747;29;20438;-67
2021/08/22 07:48:10;;;;;;;7.88;4.38;;;;;;;30.03;65.04;101396.84;4879990;29;20048;-66
2021/08/22 07:50:56;;;;;;;5.25;4.47;;;;;;;30.43;62.67;101389.66;4881683;29;20033;-66
2021/08/22 07:53:42;;;;;;;6.00;4.45;;;;;;;30.10;62.73;101388.06;4879856;29;20108;-66
2021/08/22 07:56:27;;;;;;;5.25;4.75;;;;;;;30.04;59.94;101380.50;4880713;29;20057;-66
2021/08/22 07:59:14;;;;;;;15.45;5.18;;;;;;;30.14;58.48;101384.13;4881461;29;20419;-66
2021/08/22 08:01:59;;;;;;;6.55;4.88;;;;;;;30.08;63.28;101395.47;4880027;29;20037;-66
2021/08/22 08:04:45;;;;;;;6.45;5.22;;;;;;;30.67;60.47;101387.44;4881494;29;20036;-67
2021/08/22 08:07:31;;;;;;;5.70;4.13;;;;;;;30.56;62.25;101391.13;4880303;29;20029;-66
2021/08/22 08:10:17;;;;;;;7.55;4.55;;;;;;;31.02;59.29;101387.84;4881702;29;20053;-67
2021/08/22 08:13:03;;;;;;;7.40;4.30;;;;;;;31.37;57.05;101387.31;4879770;29;20029;-67
2021/08/22 08:15:49;;;;;;;6.63;4.10;;;;;;;31.10;56.52;101390.69;4881504;29;20033;-66
2021/08/22 08:18:35;;;;;;;4.75;3.80;;;;;;;31.31;54.24;101391.44;4879584;29;20025;-66
2021/08/22 08:21:20;;;;;;;7.05;4.28;;;;;;;31.33;52.24;101381.31;4879828;29;20374;-66
2021/08/22 08:24:06;;;;;;;5.15;4.65;;;;;;;31.54;52.06;101387.41;4880201;29;20132;-66
2021/08/22 08:26:52;;;;;;;8.70;4.00;;;;;;;31.06;53.42;101394.69;4866710;29;20442;-66
2021/08/22 08:29:38;;;;;;;8.23;3.88;;;;;;;31.43;52.82;101383.00;4879315;29;20032;-66
2021/08/22 08:32:23;;;;;;;7.20;4.75;;;;;;;31.46;53.93;101387.28;4880317;29;20355;-66
2021/08/22 08:35:12;;;;;;;5.20;4.25;;;;;;;31.52;54.99;101380.41;4879776;29;20116;-67
2021/08/22 08:37:58;;;;;;;6.68;4.20;;;;;;;31.71;54.47;101381.25;4880762;29;20029;-66
2021/08/22 08:40:44;;;;;;;10.93;4.50;;;;;;;31.43;53.60;101379.47;4881400;29;20033;-66
2021/08/22 08:43:30;;;;;;;7.28;4.20;;;;;;;31.92;51.48;101381.09;4879647;29;20385;-66
2021/08/22 08:46:21;;;;;;;5.90;4.15;;;;;;;31.86;51.25;101382.53;4879919;29;20037;-66
2021/08/22 08:49:48;;;;;;;5.18;4.03;;;;;;;31.98;49.17;101377.81;4870740;29;20454;-66
2021/08/22 08:52:53;;;;;;;8.20;4.10;;;;;;;32.44;49.28;101384.06;4828096;29;20051;-66
2021/08/22 08:56:04;;;;;;;5.88;3.83;;;;;;;31.90;50.86;101377.69;4883046;29;20119;-66
2021/08/22 08:58:50;;;;;;;8.73;4.15;;;;;;;31.98;49.70;101383.22;4858151;29;20127;-66
2021/08/22 09:01:37;;;;;;;5.03;3.92;;;;;;;32.19;48.66;101381.13;4884857;29;20032;-66
2021/08/22 09:04:26;;;;;;;4.93;4.03;;;;;;;32.04;48.34;101366.34;4882995;29;20049;-67
2021/08/22 09:07:49;;;;;;;5.93;4.70;;;;;;;32.37;47.36;101369.38;4882352;29;20025;-66
2021/08/22 09:11:16;;;;;;;6.57;4.35;;;;;;;32.14;49.60;101369.91;4869185;29;20029;-66
2021/08/22 09:14:39;;;;;;;8.88;4.35;;;;;;;32.40;48.15;101366.38;4851719;29;20154;-66
2021/08/22 09:18:02;;;;;;;6.00;4.30;;;;;;;32.54;47.35;101367.72;4883904;29;20064;-66
2021/08/22 09:21:09;;;;;;;5.75;4.53;;;;;;;31.92;49.26;101353.97;4884009;29;20045;-66
2021/08/22 09:24:32;;;;;;;8.02;4.50;;;;;;;31.99;48.55;101350.53;4882130;29;20332;-66
2021/08/22 09:27:40;;;;;;;6.55;4.63;;;;;;;32.40;48.16;101347.38;4883622;29;20021;-66
2021/08/22 09:31:03;;;;;;;4.82;4.30;;;;;;;32.25;50.90;101362.41;4883520;29;20036;-66
2021/08/22 09:34:26;;;;;;;6.57;4.30;;;;;;;32.21;50.63;101358.28;4884059;29;20044;-66
2021/08/22 09:37:51;;;;;;;10.38;4.35;;;;;;;32.03;50.20;101362.81;4883351;29;20032;-66
2021/08/22 09:41:00;;;;;;;6.05;4.53;;;;;;;32.56;50.80;101357.56;4860357;29;20033;-67
2021/08/22 09:44:23;;;;;;;6.28;4.43;;;;;;;32.14;49.92;101367.19;4884170;29;20025;-67
2021/08/22 09:47:41;;;;;;;4.70;4.00;;;;;;;31.92;51.62;101362.09;4882197;29;20025;-66
2021/08/22 09:50:48;;;;;;;4.80;4.25;;;;;;;32.41;51.12;101364.50;4882063;29;20090;-67
2021/08/22 09:53:49;;;;;;;6.47;4.28;;;;;;;31.95;53.93;101353.69;4881969;29;20065;-66
2021/08/22 09:57:09;;;;;;;4.95;3.92;;;;;;;32.18;53.16;101353.16;4881658;29;20133;-66
2021/08/22 10:00:01;;;;;;;6.13;4.40;;;;;;;32.20;51.68;101351.16;4881260;29;20080;-66
2021/08/22 10:03:20;;;;;;;5.65;4.25;;;;;;;32.17;51.83;101340.59;4881676;29;20041;-67
2021/08/22 10:06:09;;;;;;;5.10;4.60;;;;;;;32.44;51.49;101342.50;4868209;29;20040;-67
2021/08/22 10:09:17;;;;;;;6.55;4.38;;;;;;;32.20;52.06;101339.44;4881861;29;20116;-67
2021/08/22 10:12:04;;;;;;;8.25;4.20;;;;;;;31.67;55.13;101349.16;4868260;29;20378;-66
2021/08/22 10:14:50;;;;;;;6.30;4.57;;;;;;;31.42;53.81;101337.94;4882404;29;20060;-66
2021/08/22 10:17:35;;;;;;;6.13;4.57;;;;;;;31.21;50.79;101347.19;4881360;29;20466;-66
2021/08/22 10:20:39;;;;;;;6.07;4.60;;;;;;;31.84;49.65;101343.00;4881458;29;20033;-67
2021/08/22 10:23:43;;;;;;;5.53;4.68;;;;;;;32.01;48.67;101340.38;4881203;29;20037;-67
2021/08/22 10:26:47;;;;;;;5.97;4.53;;;;;;;32.15;48.49;101347.19;4882980;29;20093;-67
2021/08/22 10:29:35;;;;;;;8.65;4.63;;;;;;;32.13;49.29;101344.63;4880911;29;20033;-66
2021/08/22 10:32:21;;;;;;;6.15;4.70;;;;;;;32.00;48.62;101344.09;4882078;29;20029;-66
2021/08/22 10:35:13;;;;;;;9.18;5.32;;;;;;;31.38;50.78;101336.53;4881092;29;20029;-66
2021/08/22 10:38:31;;;;;;;6.93;5.28;;;;;;;32.55;48.90;101348.59;4881491;29;20028;-67
2021/08/22 10:41:34;;;;;;;6.18;5.40;;;;;;;32.86;46.99;101343.69;4843380;29;20045;-67
2021/08/22 10:44:34;;;;;;;9.27;4.72;;;;;;;32.83;47.31;101339.38;4880898;29;20115;-67
2021/08/22 10:47:20;;;;;;;11.05;5.35;;;;;;;32.80;45.83;101344.25;4867631;29;20076;-67
2021/08/22 10:50:06;;;;;;;8.68;5.53;;;;;;;32.45;46.30;101342.34;4881288;29;20085;-67
2021/08/22 10:53:22;;;;;;;7.13;5.45;;;;;;;32.65;46.93;101341.22;4866968;29;20037;-67
2021/08/22 10:56:23;;;;;;;7.35;5.90;;;;;;;32.37;48.49;101342.25;4880744;29;20392;-67
2021/08/22 10:59:09;;;;;;;7.40;5.82;;;;;;;32.74;47.40;101329.44;4880546;29;20367;-66
2021/08/22 11:02:08;;;;;;;6.28;5.55;;;;;;;32.09;48.65;101334.19;4880691;29;20036;-66
2021/08/22 11:04:54;;;;;;;7.63;5.60;;;;;;;32.32;47.82;101328.28;4880831;29;20072;-67
2021/08/22 11:07:39;;;;;;;7.72;6.05;;;;;;;32.30;48.32;101327.56;4882460;29;20029;-67
2021/08/22 11:10:29;;;;;;;9.23;5.90;;;;;;;32.73;48.45;101326.88;4867411;29;20029;-66
2021/08/22 11:13:16;;;;;;;6.93;5.65;;;;;;;32.29;47.68;101327.69;4868445;29;20028;-66
2021/08/22 11:16:06;;;;;;;7.25;5.22;;;;;;;32.68;47.28;101316.50;4880502;29;20033;-67
2021/08/22 11:18:52;;;;;;;6.90;5.55;;;;;;;32.33;49.58;101331.84;4880243;29;20069;-66
2021/08/22 11:21:38;;;;;;;6.63;5.20;;;;;;;32.40;49.09;101320.25;4867475;29;20343;-67
2021/08/22 11:24:24;;;;;;;8.95;5.50;;;;;;;32.20;47.91;101315.03;4880084;29;20040;-65
2021/08/22 11:27:10;;;;;;;7.13;5.38;;;;;;;32.10;47.94;101317.78;4881273;29;20044;-66
2021/08/22 11:30:02;;;;;;;9.10;5.40;;;;;;;32.34;47.33;101320.84;4880153;29;20029;-66
2021/08/22 11:32:50;;;;;;;11.00;5.65;;;;;;;32.44;46.84;101315.34;4880034;29;20115;-66
2021/08/22 11:35:37;;;;;;;9.52;6.95;;;;;;;32.94;46.34;101312.00;4880543;29;20033;-67
2021/08/22 11:38:23;;;;;;;7.97;5.65;;;;;;;32.74;46.83;101306.88;4868109;29;20033;-67
2021/08/22 11:41:11;;;;;;;6.63;5.20;;;;;;;32.98;45.03;101315.28;4880254;29;20450;-67
2021/08/22 11:43:56;;;;;;;13.48;10.90;;;;;;;32.63;46.49;101301.66;4880586;29;20040;-67
2021/08/22 11:46:48;;;;;;;8.75;5.30;;;;;;;32.74;44.89;101307.72;4879811;29;20036;-66
2021/08/22 11:49:36;;;;;;;10.13;5.35;;;;;;;32.75;43.86;101312.13;4867829;29;20089;-66
2021/08/22 11:52:22;;;;;;;6.47;5.25;;;;;;;32.77;43.99;101298.41;4880469;29;20132;-66
2021/08/22 11:55:09;;;;;;;5.60;4.95;;;;;;;33.16;43.04;101310.69;4879552;29;20139;-66
2021/08/22 11:58:16;;;;;;;5.50;4.90;;;;;;;33.10;43.16;101306.72;4880587;29;20033;-66
2021/08/22 12:01:17;;;;;;;5.70;5.20;;;;;;;33.37;42.41;101303.94;4879715;29;20029;-66
2021/08/22 12:04:03;;;;;;;7.85;7.07;;;;;;;33.64;42.16;101305.63;4879918;29;20029;-66
2021/08/22 12:06:49;;;;;;;7.38;5.63;;;;;;;33.26;42.74;101308.75;4880226;29;20112;-67
2021/08/22 12:09:35;;;;;;;7.13;5.70;;;;;;;34.14;41.93;101307.47;4879988;29;20131;-66
2021/08/22 12:12:21;;;;;;;7.93;5.68;;;;;;;33.69;41.37;101298.72;4880285;29;20120;-66
2021/08/22 12:15:08;;;;;;;6.63;5.30;;;;;;;33.12;41.85;101296.56;4880289;29;20105;-66
2021/08/22 12:18:21;;;;;;;6.43;5.80;;;;;;;33.91;41.19;101300.06;4879693;29;20466;-66
2021/08/22 12:21:07;;;;;;;6.00;5.40;;;;;;;33.53;40.82;101297.75;4880094;29;20044;-66
2021/08/22 12:23:53;;;;;;;7.65;5.22;;;;;;;33.73;40.67;101299.22;4883253;29;20091;-66
2021/08/22 12:26:48;;;;;;;9.32;5.32;;;;;;;33.13;40.73;101298.28;4872036;29;20033;-66
2021/08/22 12:29:36;;;;;;;5.80;5.30;;;;;;;33.19;41.64;101294.06;4883682;29;20373;-66
2021/08/22 12:32:22;;;;;;;5.70;5.18;;;;;;;32.91;41.86;101300.63;4885203;29;20113;-67
2021/08/22 12:35:09;;;;;;;7.55;5.90;;;;;;;32.74;43.33;101293.31;4884861;29;20029;-67
2021/08/22 12:38:10;;;;;;;9.82;6.07;;;;;;;33.36;42.77;101287.78;4884665;29;20029;-67
2021/08/22 12:41:34;;;;;;;11.00;6.10;;;;;;;33.16;43.02;101289.81;4882929;29;20021;-67
2021/08/22 12:44:22;;;;;;;9.82;6.07;;;;;;;33.30;42.88;101286.50;4885010;29;20033;-67
2021/08/22 12:47:08;;;;;;;7.43;6.00;;;;;;;32.07;45.51;101284.72;4882677;29;20423;-67
2021/08/22 12:49:55;;;;;;;12.55;5.80;;;;;;;32.34;45.01;101279.31;4884780;29;20041;-66
2021/08/22 12:52:42;;;;;;;8.40;6.18;;;;;;;32.76;45.14;101275.84;4884301;29;20043;-66
2021/08/22 12:55:28;;;;;;;6.57;5.82;;;;;;;33.23;43.88;101282.72;4883735;29;20056;-66
2021/08/22 12:58:13;;;;;;;11.65;5.85;;;;;;;33.43;43.69;101278.00;4884728;29;20043;-66
2021/08/22 13:00:59;;;;;;;8.35;6.18;;;;;;;32.80;44.09;101276.38;4884139;29;20051;-66
2021/08/22 13:03:45;;;;;;;6.15;5.55;;;;;;;32.95;44.08;101272.16;4884036;29;20458;-66
2021/08/22 13:06:31;;;;;;;7.60;6.43;;;;;;;33.07;43.61;101263.56;4883812;29;20041;-66